sensor_id;sensor_type;location;lat;lon;timestamp;pressure;altitude;pressure_sealevel;temperature;humidity
11856;BME280;5987;53.140;8.904;2023-05-29T00:01:38;102385.03;;;8.87;100.00
11856;BME280;5987;53.140;8.904;2023-05-29T00:04:42;102379.03;;;8.67;100.00
11856;BME280;5987;53.140;8.904;2023-05-29T00:07:46;102377.28;;;8.69;100.00
11856;BME280;5987;53.140;8.904;2023-05-29T00:10:51;102381.66;;;8.68;100.00
11856;BME280;5987;53.140;8.904;2023-05-29T00:13:54;102387.78;;;8.66;100.00
11856;BME280;5987;53.140;8.904;2023-05-29T00:17:00;102386.94;;;8.56;100.00
11856;BME280;5987;53.140;8.904;2023-05-29T00:20:07;102392.19;;;8.50;100.00
11856;BME280;5987;53.140;8.904;2023-05-29T00:23:13;102385.19;;;8.52;100.00
11856;BME280;5987;53.140;8.904;2023-05-29T00:26:16;102392.22;;;8.47;100.00
11856;BME280;5987;53.140;8.904;2023-05-29T00:29:20;102390.47;;;8.46;100.00
11856;BME280;5987;53.140;8.904;2023-05-29T00:32:26;102400.06;;;8.50;100.00
11856;BME280;5987;53.140;8.904;2023-05-29T00:35:32;102400.06;;;8.47;100.00
11856;BME280;5987;53.140;8.904;2023-05-29T00:38:35;102404.41;;;8.45;100.00
11856;BME280;5987;53.140;8.904;2023-05-29T00:41:39;102407.88;;;8.44;100.00
11856;BME280;5987;53.140;8.904;2023-05-29T00:44:42;102411.41;;;8.30;100.00
11856;BME280;5987;53.140;8.904;2023-05-29T00:47:47;102417.50;;;8.26;100.00
11856;BME280;5987;53.140;8.904;2023-05-29T00:50:51;102423.63;;;8.31;100.00
11856;BME280;5987;53.140;8.904;2023-05-29T00:53:58;102420.09;;;8.34;100.00
11856;BME280;5987;53.140;8.904;2023-05-29T00:57:04;102427.97;;;8.24;100.00
11856;BME280;5987;53.140;8.904;2023-05-29T01:00:10;102428.88;;;8.16;100.00
11856;BME280;5987;53.140;8.904;2023-05-29T01:03:17;102424.50;;;8.12;100.00
11856;BME280;5987;53.140;8.904;2023-05-29T01:06:21;102432.34;;;8.07;100.00
11856;BME280;5987;53.140;8.904;2023-05-29T01:09:25;102429.72;;;8.16;100.00
11856;BME280;5987;53.140;8.904;2023-05-29T01:12:39;102434.09;;;8.11;100.00
11856;BME280;5987;53.140;8.904;2023-05-29T01:15:52;102433.25;;;8.04;100.00
11856;BME280;5987;53.140;8.904;2023-05-29T01:19:13;102434.97;;;8.05;100.00
11856;BME280;5987;53.140;8.904;2023-05-29T01:22:35;102434.09;;;8.03;100.00
11856;BME280;5987;53.140;8.904;2023-05-29T01:26:07;102443.69;;;7.83;100.00
11856;BME280;5987;53.140;8.904;2023-05-29T01:29:22;102445.44;;;7.99;100.00
11856;BME280;5987;53.140;8.904;2023-05-29T01:32:27;102448.03;;;7.92;100.00
11856;BME280;5987;53.140;8.904;2023-05-29T01:35:31;102442.81;;;7.85;100.00
11856;BME280;5987;53.140;8.904;2023-05-29T01:38:35;102444.56;;;7.88;100.00
11856;BME280;5987;53.140;8.904;2023-05-29T01:41:40;102446.28;;;7.86;100.00
11856;BME280;5987;53.140;8.904;2023-05-29T01:44:46;102437.59;;;7.84;100.00
11856;BME280;5987;53.140;8.904;2023-05-29T01:47:50;102439.31;;;7.82;100.00
11856;BME280;5987;53.140;8.904;2023-05-29T01:50:55;102436.72;;;7.74;100.00
11856;BME280;5987;53.140;8.904;2023-05-29T01:53:59;102444.56;;;7.72;100.00
11856;BME280;5987;53.140;8.904;2023-05-29T01:57:04;102442.81;;;7.81;100.00
11856;BME280;5987;53.140;8.904;2023-05-29T02:00:11;102441.06;;;7.61;100.00
11856;BME280;5987;53.140;8.904;2023-05-29T02:03:15;102448.91;;;7.60;100.00
11856;BME280;5987;53.140;8.904;2023-05-29T02:06:19;102455.84;;;7.62;100.00
11856;BME280;5987;53.140;8.904;2023-05-29T02:09:23;102444.53;;;7.63;100.00
11856;BME280;5987;53.140;8.904;2023-05-29T02:12:27;102448.03;;;7.75;100.00
11856;BME280;5987;53.140;8.904;2023-05-29T02:15:32;102449.75;;;7.60;100.00
11856;BME280;5987;53.140;8.904;2023-05-29T02:18:36;102460.19;;;7.51;100.00
11856;BME280;5987;53.140;8.904;2023-05-29T02:21:40;102460.19;;;7.40;100.00
11856;BME280;5987;53.140;8.904;2023-05-29T02:24:43;102462.78;;;7.40;100.00
11856;BME280;5987;53.140;8.904;2023-05-29T02:27:48;102460.16;;;7.35;100.00
11856;BME280;5987;53.140;8.904;2023-05-29T02:30:53;102468.88;;;7.37;100.00
11856;BME280;5987;53.140;8.904;2023-05-29T02:33:57;102469.75;;;7.35;100.00
11856;BME280;5987;53.140;8.904;2023-05-29T02:37:01;102474.09;;;7.37;100.00
11856;BME280;5987;53.140;8.904;2023-05-29T02:40:06;102474.91;;;7.21;100.00
11856;BME280;5987;53.140;8.904;2023-05-29T02:43:13;102467.09;;;7.24;100.00
11856;BME280;5987;53.140;8.904;2023-05-29T02:46:18;102475.81;;;7.29;100.00
11856;BME280;5987;53.140;8.904;2023-05-29T02:49:22;102467.97;;;7.23;100.00
11856;BME280;5987;53.140;8.904;2023-05-29T02:52:25;102465.31;;;7.15;100.00
11856;BME280;5987;53.140;8.904;2023-05-29T02:55:29;102468.84;;;7.25;100.00
11856;BME280;5987;53.140;8.904;2023-05-29T02:58:34;102467.03;;;7.07;100.00
11856;BME280;5987;53.140;8.904;2023-05-29T03:01:39;102461.84;;;7.15;100.00
11856;BME280;5987;53.140;8.904;2023-05-29T03:04:44;102465.31;;;7.18;100.00
11856;BME280;5987;53.140;8.904;2023-05-29T03:07:47;102470.56;;;7.21;100.00
11856;BME280;5987;53.140;8.904;2023-05-29T03:10:51;102467.06;;;7.15;100.00
11856;BME280;5987;53.140;8.904;2023-05-29T03:13:55;102465.31;;;7.20;100.00
11856;BME280;5987;53.140;8.904;2023-05-29T03:17:00;102468.81;;;7.16;100.00
11856;BME280;5987;53.140;8.904;2023-05-29T03:20:05;102456.63;;;7.15;100.00
11856;BME280;5987;53.140;8.904;2023-05-29T03:23:10;102455.72;;;7.11;100.00
11856;BME280;5987;53.140;8.904;2023-05-29T03:26:13;102455.72;;;7.11;100.00
11856;BME280;5987;53.140;8.904;2023-05-29T03:29:18;102460.09;;;7.11;100.00
11856;BME280;5987;53.140;8.904;2023-05-29T03:32:23;102456.63;;;7.13;100.00
11856;BME280;5987;53.140;8.904;2023-05-29T03:35:27;102461.00;;;7.19;100.00
11856;BME280;5987;53.140;8.904;2023-05-29T03:38:30;102452.25;;;7.18;100.00
11856;BME280;5987;53.140;8.904;2023-05-29T03:41:34;102454.88;;;7.14;100.00
11856;BME280;5987;53.140;8.904;2023-05-29T03:44:38;102464.41;;;7.07;100.00
11856;BME280;5987;53.140;8.904;2023-05-29T03:47:43;102463.59;;;7.25;100.00
11856;BME280;5987;53.140;8.904;2023-05-29T03:50:47;102455.81;;;7.33;100.00
11856;BME280;5987;53.140;8.904;2023-05-29T03:53:51;102463.56;;;7.10;100.00
11856;BME280;5987;53.140;8.904;2023-05-29T03:56:54;102467.97;;;7.26;100.00
11856;BME280;5987;53.140;8.904;2023-05-29T03:59:58;102474.06;;;7.28;100.00
11856;BME280;5987;53.140;8.904;2023-05-29T04:03:03;102470.53;;;7.20;100.00
11856;BME280;5987;53.140;8.904;2023-05-29T04:06:07;102478.38;;;7.18;100.00
11856;BME280;5987;53.140;8.904;2023-05-29T04:09:11;102482.75;;;7.19;100.00
11856;BME280;5987;53.140;8.904;2023-05-29T04:12:14;102481.94;;;7.42;100.00
11856;BME280;5987;53.140;8.904;2023-05-29T04:15:18;102486.31;;;7.48;100.00
11856;BME280;5987;53.140;8.904;2023-05-29T04:18:25;102488.91;;;7.37;100.00
11856;BME280;5987;53.140;8.904;2023-05-29T04:21:29;102488.03;;;7.36;100.00
11856;BME280;5987;53.140;8.904;2023-05-29T04:24:34;102493.28;;;7.43;100.00
11856;BME280;5987;53.140;8.904;2023-05-29T04:27:38;102494.16;;;7.49;100.00
11856;BME280;5987;53.140;8.904;2023-05-29T04:30:43;102496.81;;;7.60;100.00
11856;BME280;5987;53.140;8.904;2023-05-29T04:33:48;102489.91;;;8.05;100.00
11856;BME280;5987;53.140;8.904;2023-05-29T04:36:51;102494.28;;;8.19;100.00
11856;BME280;5987;53.140;8.904;2023-05-29T04:39:55;102493.34;;;8.75;100.00
11856;BME280;5987;53.140;8.904;2023-05-29T04:42:59;102484.59;;;8.89;100.00
11856;BME280;5987;53.140;8.904;2023-05-29T04:46:04;102489.81;;;8.95;100.00
11856;BME280;5987;53.140;8.904;2023-05-29T04:49:12;102487.19;;;8.95;100.00
11856;BME280;5987;53.140;8.904;2023-05-29T04:52:16;102481.09;;;8.90;100.00
11856;BME280;5987;53.140;8.904;2023-05-29T04:55:19;102494.91;;;9.32;100.00
11856;BME280;5987;53.140;8.904;2023-05-29T04:58:26;102502.84;;;9.14;100.00
11856;BME280;5987;53.140;8.904;2023-05-29T05:01:31;102507.06;;;9.46;100.00
11856;BME280;5987;53.140;8.904;2023-05-29T05:04:37;102512.25;;;9.59;100.00
11856;BME280;5987;53.140;8.904;2023-05-29T05:07:40;102517.47;;;9.64;100.00
11856;BME280;5987;53.140;8.904;2023-05-29T05:10:44;102524.63;;;9.31;100.00
11856;BME280;5987;53.140;8.904;2023-05-29T05:13:48;102515.66;;;9.72;100.00
11856;BME280;5987;53.140;8.904;2023-05-29T05:16:51;102516.97;;;10.38;100.00
11856;BME280;5987;53.140;8.904;2023-05-29T05:19:56;102512.38;;;10.59;100.00
11856;BME280;5987;53.140;8.904;2023-05-29T05:23:00;102510.31;;;9.88;100.00
11856;BME280;5987;53.140;8.904;2023-05-29T05:26:04;102506.13;;;9.62;100.00
11856;BME280;5987;53.140;8.904;2023-05-29T05:29:08;102501.22;;;10.32;100.00
11856;BME280;5987;53.140;8.904;2023-05-29T05:32:12;102501.75;;;10.71;100.00
11856;BME280;5987;53.140;8.904;2023-05-29T05:35:17;102499.19;;;10.65;100.00
11856;BME280;5987;53.140;8.904;2023-05-29T05:38:21;102489.78;;;10.42;100.00
11856;BME280;5987;53.140;8.904;2023-05-29T05:41:25;102500.00;;;10.72;100.00
11856;BME280;5987;53.140;8.904;2023-05-29T05:44:28;102494.03;;;11.32;100.00
11856;BME280;5987;53.140;8.904;2023-05-29T05:47:32;102502.88;;;11.28;100.00
11856;BME280;5987;53.140;8.904;2023-05-29T05:50:37;102502.31;;;11.68;100.00
11856;BME280;5987;53.140;8.904;2023-05-29T05:53:41;102507.97;;;11.39;100.00
11856;BME280;5987;53.140;8.904;2023-05-29T05:56:44;102499.28;;;11.32;100.00
11856;BME280;5987;53.140;8.904;2023-05-29T05:59:48;102493.34;;;11.81;100.00
11856;BME280;5987;53.140;8.904;2023-05-29T06:02:51;102496.81;;;11.21;100.00
11856;BME280;5987;53.140;8.904;2023-05-29T06:05:57;102503.16;;;11.70;100.00
11856;BME280;5987;53.140;8.904;2023-05-29T06:09:01;102501.88;;;11.37;100.00
11856;BME280;5987;53.140;8.904;2023-05-29T06:12:07;102510.78;;;11.89;100.00
11856;BME280;5987;53.140;8.904;2023-05-29T06:15:11;102512.19;;;12.13;100.00
11856;BME280;5987;53.140;8.904;2023-05-29T06:18:15;102514.66;;;12.24;100.00
11856;BME280;5987;53.140;8.904;2023-05-29T06:21:20;102520.09;;;12.11;100.00
11856;BME280;5987;53.140;8.904;2023-05-29T06:24:24;102521.38;;;11.82;100.00
11856;BME280;5987;53.140;8.904;2023-05-29T06:27:28;102524.78;;;11.27;100.00
11856;BME280;5987;53.140;8.904;2023-05-29T06:30:32;102528.53;;;11.07;100.00
11856;BME280;5987;53.140;8.904;2023-05-29T06:33:36;102520.94;;;11.53;100.00
11856;BME280;5987;53.140;8.904;2023-05-29T06:36:41;102524.13;;;11.76;100.00
11856;BME280;5987;53.140;8.904;2023-05-29T06:39:45;102510.75;;;13.37;100.00
11856;BME280;5987;53.140;8.904;2023-05-29T06:42:49;102502.00;;;13.35;100.00
11856;BME280;5987;53.140;8.904;2023-05-29T06:45:53;102521.16;;;11.99;100.00
11856;BME280;5987;53.140;8.904;2023-05-29T06:48:56;102506.63;;;12.80;100.00
11856;BME280;5987;53.140;8.904;2023-05-29T06:52:01;102517.63;;;13.00;100.00
11856;BME280;5987;53.140;8.904;2023-05-29T06:55:06;102508.16;;;12.42;100.00
11856;BME280;5987;53.140;8.904;2023-05-29T06:58:10;102520.13;;;12.61;100.00
11856;BME280;5987;53.140;8.904;2023-05-29T07:01:14;102523.00;;;11.93;100.00
11856;BME280;5987;53.140;8.904;2023-05-29T07:04:19;102518.44;;;12.59;100.00
11856;BME280;5987;53.140;8.904;2023-05-29T07:07:24;102518.28;;;12.66;100.00
11856;BME280;5987;53.140;8.904;2023-05-29T07:10:27;102506.81;;;12.69;100.00
11856;BME280;5987;53.140;8.904;2023-05-29T07:13:31;102512.19;;;12.63;100.00
11856;BME280;5987;53.140;8.904;2023-05-29T07:16:35;102516.63;;;13.06;100.00
11856;BME280;5987;53.140;8.904;2023-05-29T07:19:38;102520.66;;;12.80;100.00
11856;BME280;5987;53.140;8.904;2023-05-29T07:22:44;102524.31;;;13.18;100.00
11856;BME280;5987;53.140;8.904;2023-05-29T07:25:47;102510.31;;;13.59;100.00
11856;BME280;5987;53.140;8.904;2023-05-29T07:28:51;102526.47;;;13.43;100.00
11856;BME280;5987;53.140;8.904;2023-05-29T07:31:54;102522.66;;;12.67;100.00
11856;BME280;5987;53.140;8.904;2023-05-29T07:34:58;102520.22;;;13.47;100.00
11856;BME280;5987;53.140;8.904;2023-05-29T07:38:03;102520.16;;;13.89;100.00
11856;BME280;5987;53.140;8.904;2023-05-29T07:41:07;102516.41;;;13.61;100.00
11856;BME280;5987;53.140;8.904;2023-05-29T07:44:10;102520.50;;;13.74;100.00
11856;BME280;5987;53.140;8.904;2023-05-29T07:47:14;102519.31;;;14.23;100.00
11856;BME280;5987;53.140;8.904;2023-05-29T07:50:18;102513.69;;;14.36;100.00
11856;BME280;5987;53.140;8.904;2023-05-29T07:53:23;102514.56;;;14.71;100.00
11856;BME280;5987;53.140;8.904;2023-05-29T07:56:27;102507.63;;;13.60;100.00
11856;BME280;5987;53.140;8.904;2023-05-29T07:59:30;102515.97;;;13.40;100.00
11856;BME280;5987;53.140;8.904;2023-05-29T08:02:34;102517.16;;;13.66;100.00
11856;BME280;5987;53.140;8.904;2023-05-29T08:05:38;102521.03;;;13.88;100.00
11856;BME280;5987;53.140;8.904;2023-05-29T08:08:43;102516.19;;;14.78;100.00
11856;BME280;5987;53.140;8.904;2023-05-29T08:11:47;102531.59;;;15.25;100.00
11856;BME280;5987;53.140;8.904;2023-05-29T08:14:51;102525.75;;;15.14;100.00
11856;BME280;5987;53.140;8.904;2023-05-29T08:17:54;102530.75;;;14.58;100.00
11856;BME280;5987;53.140;8.904;2023-05-29T08:20:58;102538.09;;;14.47;100.00
11856;BME280;5987;53.140;8.904;2023-05-29T08:24:04;102534.69;;;14.78;100.00
11856;BME280;5987;53.140;8.904;2023-05-29T08:27:08;102531.31;;;14.37;100.00
11856;BME280;5987;53.140;8.904;2023-05-29T08:30:13;102523.97;;;15.44;100.00
11856;BME280;5987;53.140;8.904;2023-05-29T08:33:16;102537.72;;;13.90;100.00
11856;BME280;5987;53.140;8.904;2023-05-29T08:36:20;102528.94;;;14.61;100.00
11856;BME280;5987;53.140;8.904;2023-05-29T08:39:25;102526.06;;;16.19;100.00
11856;BME280;5987;53.140;8.904;2023-05-29T08:42:33;102521.47;;;14.78;100.00
11856;BME280;5987;53.140;8.904;2023-05-29T08:45:43;102527.28;;;14.91;100.00
11856;BME280;5987;53.140;8.904;2023-05-29T08:48:49;102527.03;;;14.99;100.00
11856;BME280;5987;53.140;8.904;2023-05-29T08:52:02;102524.16;;;15.38;100.00
11856;BME280;5987;53.140;8.904;2023-05-29T08:55:09;102540.28;;;15.29;100.00
11856;BME280;5987;53.140;8.904;2023-05-29T08:58:14;102535.72;;;14.71;100.00
11856;BME280;5987;53.140;8.904;2023-05-29T09:01:18;102525.34;;;15.27;100.00
11856;BME280;5987;53.140;8.904;2023-05-29T09:04:22;102529.28;;;14.47;100.00
11856;BME280;5987;53.140;8.904;2023-05-29T09:07:26;102523.06;;;15.45;100.00
11856;BME280;5987;53.140;8.904;2023-05-29T09:10:31;102511.59;;;14.83;100.00
11856;BME280;5987;53.140;8.904;2023-05-29T09:13:37;102517.44;;;16.12;100.00
11856;BME280;5987;53.140;8.904;2023-05-29T09:16:41;102519.78;;;15.37;99.97
11856;BME280;5987;53.140;8.904;2023-05-29T09:19:48;102511.56;;;16.29;96.76
11856;BME280;5987;53.140;8.904;2023-05-29T09:22:56;102515.59;;;16.41;94.54
11856;BME280;5987;53.140;8.904;2023-05-29T09:26:03;102513.72;;;16.18;100.00
11856;BME280;5987;53.140;8.904;2023-05-29T09:29:07;102522.84;;;15.53;100.00
11856;BME280;5987;53.140;8.904;2023-05-29T09:32:15;102520.38;;;15.75;100.00
11856;BME280;5987;53.140;8.904;2023-05-29T09:35:19;102519.53;;;16.03;100.00
11856;BME280;5987;53.140;8.904;2023-05-29T09:38:23;102513.31;;;15.47;100.00
11856;BME280;5987;53.140;8.904;2023-05-29T09:41:48;102514.53;;;15.35;97.56
11856;BME280;5987;53.140;8.904;2023-05-29T09:44:54;102511.84;;;15.65;99.27
11856;BME280;5987;53.140;8.904;2023-05-29T09:47:59;102521.38;;;16.01;91.92
11856;BME280;5987;53.140;8.904;2023-05-29T09:51:03;102503.38;;;15.84;94.68
11856;BME280;5987;53.140;8.904;2023-05-29T09:54:17;102520.41;;;15.15;97.69
11856;BME280;5987;53.140;8.904;2023-05-29T09:57:25;102515.13;;;14.84;100.00
11856;BME280;5987;53.140;8.904;2023-05-29T10:00:30;102512.34;;;15.78;100.00
11856;BME280;5987;53.140;8.904;2023-05-29T10:03:34;102514.44;;;15.97;100.00
11856;BME280;5987;53.140;8.904;2023-05-29T10:06:45;102502.50;;;15.53;96.84
11856;BME280;5987;53.140;8.904;2023-05-29T10:09:57;102512.38;;;15.76;100.00
11856;BME280;5987;53.140;8.904;2023-05-29T10:13:06;102513.91;;;14.96;100.00
11856;BME280;5987;53.140;8.904;2023-05-29T10:16:14;102508.63;;;15.55;100.00
11856;BME280;5987;53.140;8.904;2023-05-29T10:19:25;102501.25;;;15.65;100.00
11856;BME280;5987;53.140;8.904;2023-05-29T10:22:32;102497.53;;;15.71;100.00
11856;BME280;5987;53.140;8.904;2023-05-29T10:25:38;102494.19;;;15.66;100.00
11856;BME280;5987;53.140;8.904;2023-05-29T10:28:56;102492.72;;;15.85;100.00
11856;BME280;5987;53.140;8.904;2023-05-29T10:32:19;102502.47;;;15.55;97.58
11856;BME280;5987;53.140;8.904;2023-05-29T10:35:31;102488.69;;;15.43;96.26
11856;BME280;5987;53.140;8.904;2023-05-29T10:38:37;102487.47;;;15.54;92.99
11856;BME280;5987;53.140;8.904;2023-05-29T10:41:41;102483.16;;;16.08;98.71
11856;BME280;5987;53.140;8.904;2023-05-29T10:44:46;102487.22;;;15.91;100.00
11856;BME280;5987;53.140;8.904;2023-05-29T10:47:50;102487.25;;;15.61;100.00
11856;BME280;5987;53.140;8.904;2023-05-29T10:50:54;102489.66;;;15.41;100.00
11856;BME280;5987;53.140;8.904;2023-05-29T10:53:58;102489.97;;;15.88;97.31
11856;BME280;5987;53.140;8.904;2023-05-29T10:57:02;102487.78;;;15.73;98.73
11856;BME280;5987;53.140;8.904;2023-05-29T11:00:11;102485.56;;;15.59;95.96
11856;BME280;5987;53.140;8.904;2023-05-29T11:03:24;102491.94;;;15.82;100.00
11856;BME280;5987;53.140;8.904;2023-05-29T11:06:35;102478.84;;;15.19;100.00
11856;BME280;5987;53.140;8.904;2023-05-29T11:09:39;102472.81;;;15.43;100.00
11856;BME280;5987;53.140;8.904;2023-05-29T11:12:58;102471.75;;;16.56;100.00
11856;BME280;5987;53.140;8.904;2023-05-29T11:16:11;102475.81;;;16.16;100.00
11856;BME280;5987;53.140;8.904;2023-05-29T11:19:17;102481.13;;;15.59;100.00
11856;BME280;5987;53.140;8.904;2023-05-29T11:22:27;102485.16;;;16.26;96.42
11856;BME280;5987;53.140;8.904;2023-05-29T11:25:37;102464.78;;;16.02;100.00
11856;BME280;5987;53.140;8.904;2023-05-29T11:28:41;102471.06;;;15.71;99.81
11856;BME280;5987;53.140;8.904;2023-05-29T11:31:47;102460.59;;;16.21;95.30
11856;BME280;5987;53.140;8.904;2023-05-29T11:34:55;102471.81;;;16.03;100.00
11856;BME280;5987;53.140;8.904;2023-05-29T11:38:01;102459.03;;;16.41;99.19
11856;BME280;5987;53.140;8.904;2023-05-29T11:41:05;102447.75;;;16.59;100.00
11856;BME280;5987;53.140;8.904;2023-05-29T11:44:13;102449.78;;;16.78;100.00
11856;BME280;5987;53.140;8.904;2023-05-29T11:47:18;102463.44;;;16.42;94.71
11856;BME280;5987;53.140;8.904;2023-05-29T11:50:25;102474.34;;;16.33;96.61
11856;BME280;5987;53.140;8.904;2023-05-29T11:53:29;102483.09;;;16.09;93.38
11856;BME280;5987;53.140;8.904;2023-05-29T11:56:33;102466.34;;;16.09;96.48
11856;BME280;5987;53.140;8.904;2023-05-29T11:59:37;102460.81;;;16.66;93.34
11856;BME280;5987;53.140;8.904;2023-05-29T12:02:42;102461.06;;;17.30;87.66
11856;BME280;5987;53.140;8.904;2023-05-29T12:05:49;102479.31;;;16.17;83.21
11856;BME280;5987;53.140;8.904;2023-05-29T12:08:58;102476.44;;;16.23;83.93
11856;BME280;5987;53.140;8.904;2023-05-29T12:12:02;102471.94;;;16.00;91.33
11856;BME280;5987;53.140;8.904;2023-05-29T12:15:08;102457.72;;;16.78;96.42
11856;BME280;5987;53.140;8.904;2023-05-29T12:18:15;102464.63;;;16.58;100.00
11856;BME280;5987;53.140;8.904;2023-05-29T12:21:21;102469.41;;;15.97;100.00
11856;BME280;5987;53.140;8.904;2023-05-29T12:24:24;102471.53;;;16.12;100.00
11856;BME280;5987;53.140;8.904;2023-05-29T12:27:33;102469.19;;;16.03;100.00
11856;BME280;5987;53.140;8.904;2023-05-29T12:30:44;102461.56;;;16.44;100.00
11856;BME280;5987;53.140;8.904;2023-05-29T12:33:53;102448.72;;;16.58;100.00
11856;BME280;5987;53.140;8.904;2023-05-29T12:37:06;102464.00;;;16.00;100.00
11856;BME280;5987;53.140;8.904;2023-05-29T12:40:16;102464.69;;;16.32;100.00
11856;BME280;5987;53.140;8.904;2023-05-29T12:43:20;102452.06;;;16.38;100.00
11856;BME280;5987;53.140;8.904;2023-05-29T12:46:26;102466.34;;;16.09;100.00
11856;BME280;5987;53.140;8.904;2023-05-29T12:49:36;102466.19;;;16.39;100.00
11856;BME280;5987;53.140;8.904;2023-05-29T12:52:40;102460.44;;;16.01;100.00
11856;BME280;5987;53.140;8.904;2023-05-29T12:55:46;102449.75;;;16.54;100.00
11856;BME280;5987;53.140;8.904;2023-05-29T12:58:50;102455.69;;;16.85;100.00
11856;BME280;5987;53.140;8.904;2023-05-29T13:01:54;102468.38;;;16.01;100.00
11856;BME280;5987;53.140;8.904;2023-05-29T13:04:59;102467.59;;;15.97;100.00
11856;BME280;5987;53.140;8.904;2023-05-29T13:08:03;102466.06;;;15.90;100.00
11856;BME280;5987;53.140;8.904;2023-05-29T13:11:09;102462.16;;;16.77;100.00
11856;BME280;5987;53.140;8.904;2023-05-29T13:14:13;102462.00;;;16.82;100.00
11856;BME280;5987;53.140;8.904;2023-05-29T13:17:21;102475.28;;;16.32;100.00
11856;BME280;5987;53.140;8.904;2023-05-29T13:20:26;102463.91;;;16.28;100.00
11856;BME280;5987;53.140;8.904;2023-05-29T13:23:29;102461.44;;;15.97;100.00
11856;BME280;5987;53.140;8.904;2023-05-29T13:26:33;102466.72;;;16.23;100.00
11856;BME280;5987;53.140;8.904;2023-05-29T13:29:37;102451.78;;;16.46;100.00
11856;BME280;5987;53.140;8.904;2023-05-29T13:32:41;102463.38;;;16.43;100.00
11856;BME280;5987;53.140;8.904;2023-05-29T13:35:46;102456.72;;;16.80;100.00
11856;BME280;5987;53.140;8.904;2023-05-29T13:38:50;102463.41;;;16.17;100.00
11856;BME280;5987;53.140;8.904;2023-05-29T13:41:54;102450.34;;;16.62;100.00
11856;BME280;5987;53.140;8.904;2023-05-29T13:44:57;102460.00;;;16.63;100.00
11856;BME280;5987;53.140;8.904;2023-05-29T13:48:02;102443.75;;;16.98;100.00
11856;BME280;5987;53.140;8.904;2023-05-29T13:51:07;102443.34;;;17.09;96.55
11856;BME280;5987;53.140;8.904;2023-05-29T13:54:11;102449.44;;;17.11;95.59
11856;BME280;5987;53.140;8.904;2023-05-29T13:57:16;102450.25;;;17.13;94.53
11856;BME280;5987;53.140;8.904;2023-05-29T14:00:20;102444.94;;;16.40;98.29
11856;BME280;5987;53.140;8.904;2023-05-29T14:03:23;102454.13;;;16.55;93.67
11856;BME280;5987;53.140;8.904;2023-05-29T14:06:33;102460.25;;;16.81;100.00
11856;BME280;5987;53.140;8.904;2023-05-29T14:09:39;102452.75;;;16.69;97.57
11856;BME280;5987;53.140;8.904;2023-05-29T14:12:43;102453.22;;;16.80;89.46
11856;BME280;5987;53.140;8.904;2023-05-29T14:15:47;102460.34;;;16.54;91.36
11856;BME280;5987;53.140;8.904;2023-05-29T14:18:51;102453.84;;;16.38;88.24
11856;BME280;5987;53.140;8.904;2023-05-29T14:21:57;102454.50;;;17.17;85.26
11856;BME280;5987;53.140;8.904;2023-05-29T14:25:02;102459.56;;;16.76;80.31
11856;BME280;5987;53.140;8.904;2023-05-29T14:28:06;102462.59;;;16.90;88.32
11856;BME280;5987;53.140;8.904;2023-05-29T14:31:10;102453.66;;;16.93;89.36
11856;BME280;5987;53.140;8.904;2023-05-29T14:34:15;102439.25;;;16.75;87.29
11856;BME280;5987;53.140;8.904;2023-05-29T14:37:20;102454.94;;;16.81;91.11
11856;BME280;5987;53.140;8.904;2023-05-29T14:40:23;102445.75;;;17.15;89.97
11856;BME280;5987;53.140;8.904;2023-05-29T14:43:27;102438.59;;;17.61;91.40
11856;BME280;5987;53.140;8.904;2023-05-29T14:46:31;102455.44;;;16.92;87.97
11856;BME280;5987;53.140;8.904;2023-05-29T14:49:35;102458.44;;;16.58;93.82
11856;BME280;5987;53.140;8.904;2023-05-29T14:52:40;102449.75;;;16.54;89.58
11856;BME280;5987;53.140;8.904;2023-05-29T14:55:43;102451.31;;;17.07;87.29
11856;BME280;5987;53.140;8.904;2023-05-29T14:58:47;102456.78;;;16.79;91.99
11856;BME280;5987;53.140;8.904;2023-05-29T15:01:51;102444.91;;;16.66;90.59
11856;BME280;5987;53.140;8.904;2023-05-29T15:04:56;102458.53;;;16.80;92.37
11856;BME280;5987;53.140;8.904;2023-05-29T15:08:01;102461.00;;;16.85;92.81
11856;BME280;5987;53.140;8.904;2023-05-29T15:11:07;102470.75;;;16.84;91.09
11856;BME280;5987;53.140;8.904;2023-05-29T15:14:11;102448.66;;;16.60;94.70
11856;BME280;5987;53.140;8.904;2023-05-29T15:17:16;102459.25;;;16.35;91.17
11856;BME280;5987;53.140;8.904;2023-05-29T15:20:20;102451.00;;;16.68;92.29
11856;BME280;5987;53.140;8.904;2023-05-29T15:23:26;102454.69;;;16.63;89.94
11856;BME280;5987;53.140;8.904;2023-05-29T15:26:33;102458.00;;;16.20;89.83
11856;BME280;5987;53.140;8.904;2023-05-29T15:29:37;102465.88;;;16.72;84.97
11856;BME280;5987;53.140;8.904;2023-05-29T15:32:43;102458.00;;;16.70;86.97
11856;BME280;5987;53.140;8.904;2023-05-29T15:35:47;102451.72;;;16.73;83.54
11856;BME280;5987;53.140;8.904;2023-05-29T15:38:52;102453.31;;;16.53;83.31
11856;BME280;5987;53.140;8.904;2023-05-29T15:41:56;102452.56;;;16.73;79.59
11856;BME280;5987;53.140;8.904;2023-05-29T15:45:00;102456.06;;;16.50;83.41
11856;BME280;5987;53.140;8.904;2023-05-29T15:48:06;102451.13;;;16.64;82.99
11856;BME280;5987;53.140;8.904;2023-05-29T15:51:13;102456.88;;;16.52;83.71
11856;BME280;5987;53.140;8.904;2023-05-29T15:54:18;102458.38;;;16.34;82.42
11856;BME280;5987;53.140;8.904;2023-05-29T15:57:26;102458.78;;;16.23;83.03
11856;BME280;5987;53.140;8.904;2023-05-29T16:00:29;102448.47;;;16.14;84.82
11856;BME280;5987;53.140;8.904;2023-05-29T16:03:35;102448.16;;;16.74;81.75
11856;BME280;5987;53.140;8.904;2023-05-29T16:06:39;102454.75;;;16.37;84.26
11856;BME280;5987;53.140;8.904;2023-05-29T16:09:44;102448.13;;;16.50;85.95
11856;BME280;5987;53.140;8.904;2023-05-29T16:12:49;102453.41;;;16.50;81.71
11856;BME280;5987;53.140;8.904;2023-05-29T16:15:52;102463.84;;;16.29;81.85